sensor_id;sensor_type;location;lat;lon;timestamp;P1;durP1;ratioP1;P2;durP2;ratioP2
1601;SDS011;794;48.592;9.634;2023-04-15T00:01:57;2.90;;;2.63;;
1601;SDS011;794;48.592;9.634;2023-04-15T00:04:25;2.90;;;2.70;;
1601;SDS011;794;48.592;9.634;2023-04-15T00:06:54;3.10;;;2.73;;
1601;SDS011;794;48.592;9.634;2023-04-15T00:09:21;4.40;;;2.63;;
1601;SDS011;794;48.592;9.634;2023-04-15T00:11:48;3.53;;;3.07;;
1601;SDS011;794;48.592;9.634;2023-04-15T00:14:16;3.60;;;3.30;;
1601;SDS011;794;48.592;9.634;2023-04-15T00:16:43;3.70;;;3.30;;
1601;SDS011;794;48.592;9.634;2023-04-15T00:19:10;4.70;;;4.30;;
1601;SDS011;794;48.592;9.634;2023-04-15T00:21:37;8.70;;;4.30;;
1601;SDS011;794;48.592;9.634;2023-04-15T00:24:05;4.87;;;3.60;;
1601;SDS011;794;48.592;9.634;2023-04-15T00:26:36;5.57;;;4.07;;
1601;SDS011;794;48.592;9.634;2023-04-15T00:29:05;4.57;;;3.70;;
1601;SDS011;794;48.592;9.634;2023-04-15T00:31:32;4.53;;;3.60;;
1601;SDS011;794;48.592;9.634;2023-04-15T00:34:06;4.77;;;3.50;;
1601;SDS011;794;48.592;9.634;2023-04-15T00:36:36;6.13;;;4.57;;
1601;SDS011;794;48.592;9.634;2023-04-15T00:39:07;5.17;;;2.90;;
1601;SDS011;794;48.592;9.634;2023-04-15T00:41:37;3.70;;;3.33;;
1601;SDS011;794;48.592;9.634;2023-04-15T00:44:05;3.33;;;2.50;;
1601;SDS011;794;48.592;9.634;2023-04-15T00:46:32;3.50;;;2.47;;
1601;SDS011;794;48.592;9.634;2023-04-15T00:49:03;5.10;;;3.20;;
1601;SDS011;794;48.592;9.634;2023-04-15T00:51:31;4.00;;;2.70;;
1601;SDS011;794;48.592;9.634;2023-04-15T00:54:00;5.97;;;3.07;;
1601;SDS011;794;48.592;9.634;2023-04-15T00:56:31;4.17;;;2.50;;
1601;SDS011;794;48.592;9.634;2023-04-15T00:59:02;4.40;;;3.00;;
1601;SDS011;794;48.592;9.634;2023-04-15T01:01:35;8.73;;;3.10;;
1601;SDS011;794;48.592;9.634;2023-04-15T01:04:06;2.70;;;2.23;;
1601;SDS011;794;48.592;9.634;2023-04-15T01:06:34;3.10;;;2.40;;
1601;SDS011;794;48.592;9.634;2023-04-15T01:09:01;3.73;;;1.87;;
1601;SDS011;794;48.592;9.634;2023-04-15T01:11:32;2.53;;;1.90;;
1601;SDS011;794;48.592;9.634;2023-04-15T01:14:02;2.10;;;1.90;;
1601;SDS011;794;48.592;9.634;2023-04-15T01:16:36;2.40;;;2.20;;
1601;SDS011;794;48.592;9.634;2023-04-15T01:19:05;6.23;;;2.40;;
1601;SDS011;794;48.592;9.634;2023-04-15T01:21:36;2.33;;;2.10;;
1601;SDS011;794;48.592;9.634;2023-04-15T01:24:07;6.50;;;3.37;;
1601;SDS011;794;48.592;9.634;2023-04-15T01:26:39;3.23;;;2.93;;
1601;SDS011;794;48.592;9.634;2023-04-15T01:29:06;5.20;;;2.70;;
1601;SDS011;794;48.592;9.634;2023-04-15T01:31:36;3.70;;;2.23;;
1601;SDS011;794;48.592;9.634;2023-04-15T01:34:05;3.90;;;2.57;;
1601;SDS011;794;48.592;9.634;2023-04-15T01:36:32;3.57;;;2.77;;
1601;SDS011;794;48.592;9.634;2023-04-15T01:39:02;4.77;;;2.20;;
1601;SDS011;794;48.592;9.634;2023-04-15T01:41:33;2.33;;;2.10;;
1601;SDS011;794;48.592;9.634;2023-04-15T01:44:04;3.27;;;2.97;;
1601;SDS011;794;48.592;9.634;2023-04-15T01:46:32;2.27;;;2.07;;
1601;SDS011;794;48.592;9.634;2023-04-15T01:49:01;3.10;;;2.13;;
1601;SDS011;794;48.592;9.634;2023-04-15T01:51:31;2.97;;;2.70;;
1601;SDS011;794;48.592;9.634;2023-04-15T01:54:01;3.70;;;3.00;;
1601;SDS011;794;48.592;9.634;2023-04-15T01:56:30;2.53;;;2.33;;
1601;SDS011;794;48.592;9.634;2023-04-15T01:59:00;3.40;;;1.80;;
1601;SDS011;794;48.592;9.634;2023-04-15T02:01:27;4.27;;;2.60;;
1601;SDS011;794;48.592;9.634;2023-04-15T02:03:56;2.47;;;2.27;;
1601;SDS011;794;48.592;9.634;2023-04-15T02:06:26;5.20;;;2.30;;
1601;SDS011;794;48.592;9.634;2023-04-15T02:08:56;2.67;;;2.47;;
1601;SDS011;794;48.592;9.634;2023-04-15T02:11:31;3.37;;;2.30;;
1601;SDS011;794;48.592;9.634;2023-04-15T02:14:02;3.30;;;2.80;;
1601;SDS011;794;48.592;9.634;2023-04-15T02:16:29;3.30;;;2.80;;
1601;SDS011;794;48.592;9.634;2023-04-15T02:18:58;4.83;;;2.93;;
1601;SDS011;794;48.592;9.634;2023-04-15T02:21:25;3.20;;;2.50;;
1601;SDS011;794;48.592;9.634;2023-04-15T02:23:52;4.03;;;2.57;;
1601;SDS011;794;48.592;9.634;2023-04-15T02:26:27;2.97;;;2.60;;
1601;SDS011;794;48.592;9.634;2023-04-15T02:29:04;2.83;;;1.73;;
1601;SDS011;794;48.592;9.634;2023-04-15T02:31:40;6.47;;;2.40;;
1601;SDS011;794;48.592;9.634;2023-04-15T02:34:07;2.23;;;2.03;;
1601;SDS011;794;48.592;9.634;2023-04-15T02:36:41;2.73;;;2.27;;
1601;SDS011;794;48.592;9.634;2023-04-15T02:39:08;3.60;;;3.03;;
1601;SDS011;794;48.592;9.634;2023-04-15T02:41:40;4.60;;;2.60;;
1601;SDS011;794;48.592;9.634;2023-04-15T02:44:09;2.50;;;2.10;;
1601;SDS011;794;48.592;9.634;2023-04-15T02:46:37;6.10;;;2.67;;
1601;SDS011;794;48.592;9.634;2023-04-15T02:49:06;4.93;;;2.90;;
1601;SDS011;794;48.592;9.634;2023-04-15T02:51:37;3.27;;;2.27;;
1601;SDS011;794;48.592;9.634;2023-04-15T02:54:06;3.30;;;2.03;;
1601;SDS011;794;48.592;9.634;2023-04-15T02:56:49;3.40;;;1.90;;
1601;SDS011;794;48.592;9.634;2023-04-15T02:59:35;2.23;;;2.00;;
1601;SDS011;794;48.592;9.634;2023-04-15T03:02:06;6.10;;;2.70;;
1601;SDS011;794;48.592;9.634;2023-04-15T03:04:33;4.17;;;2.70;;
1601;SDS011;794;48.592;9.634;2023-04-15T03:07:03;2.80;;;2.60;;
1601;SDS011;794;48.592;9.634;2023-04-15T03:09:38;3.67;;;2.70;;
1601;SDS011;794;48.592;9.634;2023-04-15T03:12:14;4.77;;;3.03;;
1601;SDS011;794;48.592;9.634;2023-04-15T03:14:44;4.63;;;2.57;;
1601;SDS011;794;48.592;9.634;2023-04-15T03:17:11;4.87;;;3.00;;
1601;SDS011;794;48.592;9.634;2023-04-15T03:19:42;3.83;;;2.70;;
1601;SDS011;794;48.592;9.634;2023-04-15T03:22:12;5.50;;;3.27;;
1601;SDS011;794;48.592;9.634;2023-04-15T03:24:42;4.50;;;3.70;;
1601;SDS011;794;48.592;9.634;2023-04-15T03:27:12;3.80;;;3.50;;
1601;SDS011;794;48.592;9.634;2023-04-15T03:29:40;2.93;;;2.53;;
1601;SDS011;794;48.592;9.634;2023-04-15T03:32:08;2.70;;;2.50;;
1601;SDS011;794;48.592;9.634;2023-04-15T03:34:36;6.53;;;2.67;;
1601;SDS011;794;48.592;9.634;2023-04-15T03:37:04;3.50;;;3.20;;
1601;SDS011;794;48.592;9.634;2023-04-15T03:39:32;3.60;;;3.30;;
1601;SDS011;794;48.592;9.634;2023-04-15T03:42:02;5.90;;;3.23;;
1601;SDS011;794;48.592;9.634;2023-04-15T03:44:29;4.33;;;3.23;;
1601;SDS011;794;48.592;9.634;2023-04-15T03:46:57;3.20;;;2.57;;
1601;SDS011;794;48.592;9.634;2023-04-15T03:49:27;3.13;;;2.83;;
1601;SDS011;794;48.592;9.634;2023-04-15T03:51:57;2.93;;;2.27;;
1601;SDS011;794;48.592;9.634;2023-04-15T03:54:28;2.37;;;2.17;;
1601;SDS011;794;48.592;9.634;2023-04-15T03:56:58;3.30;;;2.20;;
1601;SDS011;794;48.592;9.634;2023-04-15T03:59:28;2.23;;;2.03;;
1601;SDS011;794;48.592;9.634;2023-04-15T04:01:58;9.23;;;2.30;;
1601;SDS011;794;48.592;9.634;2023-04-15T04:04:25;3.23;;;2.47;;
1601;SDS011;794;48.592;9.634;2023-04-15T04:06:56;2.07;;;1.93;;
1601;SDS011;794;48.592;9.634;2023-04-15T04:09:23;3.30;;;2.53;;
1601;SDS011;794;48.592;9.634;2023-04-15T04:11:53;2.90;;;2.60;;
1601;SDS011;794;48.592;9.634;2023-04-15T04:14:23;4.97;;;2.30;;
1601;SDS011;794;48.592;9.634;2023-04-15T04:16:56;2.33;;;2.13;;
1601;SDS011;794;48.592;9.634;2023-04-15T04:19:25;3.17;;;2.97;;
1601;SDS011;794;48.592;9.634;2023-04-15T04:21:55;2.53;;;2.33;;
1601;SDS011;794;48.592;9.634;2023-04-15T04:24:22;2.93;;;2.27;;
1601;SDS011;794;48.592;9.634;2023-04-15T04:26:49;6.70;;;2.80;;
1601;SDS011;794;48.592;9.634;2023-04-15T04:29:16;2.60;;;2.40;;
1601;SDS011;794;48.592;9.634;2023-04-15T04:31:46;2.77;;;2.57;;
1601;SDS011;794;48.592;9.634;2023-04-15T04:34:16;3.33;;;2.43;;
1601;SDS011;794;48.592;9.634;2023-04-15T04:36:46;2.27;;;2.07;;
1601;SDS011;794;48.592;9.634;2023-04-15T04:39:16;2.83;;;2.37;;
1601;SDS011;794;48.592;9.634;2023-04-15T04:41:45;5.07;;;2.53;;
1601;SDS011;794;48.592;9.634;2023-04-15T04:44:12;3.20;;;2.30;;
1601;SDS011;794;48.592;9.634;2023-04-15T04:46:39;2.20;;;2.10;;
1601;SDS011;794;48.592;9.634;2023-04-15T04:49:06;4.17;;;2.30;;
1601;SDS011;794;48.592;9.634;2023-04-15T04:51:33;3.70;;;2.33;;
1601;SDS011;794;48.592;9.634;2023-04-15T04:54:06;4.10;;;2.00;;
1601;SDS011;794;48.592;9.634;2023-04-15T04:56:36;2.77;;;2.40;;
1601;SDS011;794;48.592;9.634;2023-04-15T04:59:03;2.50;;;2.17;;
1601;SDS011;794;48.592;9.634;2023-04-15T05:01:31;2.20;;;2.00;;
1601;SDS011;794;48.592;9.634;2023-04-15T05:03:58;3.00;;;2.40;;
1601;SDS011;794;48.592;9.634;2023-04-15T05:06:29;3.93;;;2.80;;
1601;SDS011;794;48.592;9.634;2023-04-15T05:08:56;2.03;;;1.93;;
1601;SDS011;794;48.592;9.634;2023-04-15T05:11:25;2.37;;;2.17;;
1601;SDS011;794;48.592;9.634;2023-04-15T05:13:57;3.67;;;2.40;;
1601;SDS011;794;48.592;9.634;2023-04-15T05:16:26;1.80;;;1.70;;
1601;SDS011;794;48.592;9.634;2023-04-15T05:18:55;2.73;;;2.53;;
1601;SDS011;794;48.592;9.634;2023-04-15T05:21:22;2.50;;;2.10;;
1601;SDS011;794;48.592;9.634;2023-04-15T05:23:51;2.93;;;2.17;;
1601;SDS011;794;48.592;9.634;2023-04-15T05:26:19;4.80;;;2.40;;
1601;SDS011;794;48.592;9.634;2023-04-15T05:28:46;2.73;;;2.50;;
1601;SDS011;794;48.592;9.634;2023-04-15T05:31:17;7.27;;;2.00;;
1601;SDS011;794;48.592;9.634;2023-04-15T05:33:48;3.87;;;2.23;;
1601;SDS011;794;48.592;9.634;2023-04-15T05:36:17;2.27;;;2.17;;
1601;SDS011;794;48.592;9.634;2023-04-15T05:38:45;3.30;;;1.90;;
1601;SDS011;794;48.592;9.634;2023-04-15T05:41:12;2.20;;;2.00;;
1601;SDS011;794;48.592;9.634;2023-04-15T05:43:40;5.27;;;2.73;;
1601;SDS011;794;48.592;9.634;2023-04-15T05:46:07;3.83;;;2.50;;
1601;SDS011;794;48.592;9.634;2023-04-15T05:48:35;11.97;;;10.90;;
1601;SDS011;794;48.592;9.634;2023-04-15T05:51:02;12.23;;;8.90;;
1601;SDS011;794;48.592;9.634;2023-04-15T05:53:33;11.83;;;9.80;;
1601;SDS011;794;48.592;9.634;2023-04-15T05:56:02;8.83;;;8.00;;
1601;SDS011;794;48.592;9.634;2023-04-15T05:58:29;6.70;;;6.10;;
1601;SDS011;794;48.592;9.634;2023-04-15T06:00:56;6.03;;;5.40;;
1601;SDS011;794;48.592;9.634;2023-04-15T06:03:26;5.57;;;4.10;;
1601;SDS011;794;48.592;9.634;2023-04-15T06:05:54;3.47;;;3.17;;
1601;SDS011;794;48.592;9.634;2023-04-15T06:08:21;4.43;;;3.60;;
1601;SDS011;794;48.592;9.634;2023-04-15T06:10:50;5.10;;;3.17;;
1601;SDS011;794;48.592;9.634;2023-04-15T06:13:16;3.33;;;2.90;;
1601;SDS011;794;48.592;9.634;2023-04-15T06:15:46;3.50;;;3.20;;
1601;SDS011;794;48.592;9.634;2023-04-15T06:18:16;3.43;;;2.80;;
1601;SDS011;794;48.592;9.634;2023-04-15T06:20:43;4.77;;;3.30;;
1601;SDS011;794;48.592;9.634;2023-04-15T06:23:16;4.93;;;2.43;;
1601;SDS011;794;48.592;9.634;2023-04-15T06:25:46;6.20;;;2.93;;
1601;SDS011;794;48.592;9.634;2023-04-15T06:28:17;4.53;;;2.67;;
1601;SDS011;794;48.592;9.634;2023-04-15T06:30:46;2.57;;;2.37;;
1601;SDS011;794;48.592;9.634;2023-04-15T06:33:15;5.27;;;2.90;;
1601;SDS011;794;48.592;9.634;2023-04-15T06:35:42;4.67;;;3.53;;
1601;SDS011;794;48.592;9.634;2023-04-15T06:38:11;8.93;;;3.30;;
1601;SDS011;794;48.592;9.634;2023-04-15T06:40:41;7.60;;;4.40;;
1601;SDS011;794;48.592;9.634;2023-04-15T06:43:11;5.07;;;4.03;;
1601;SDS011;794;48.592;9.634;2023-04-15T06:45:37;4.83;;;4.10;;
1601;SDS011;794;48.592;9.634;2023-04-15T06:48:07;5.17;;;4.33;;
1601;SDS011;794;48.592;9.634;2023-04-15T06:50:35;6.40;;;5.80;;
1601;SDS011;794;48.592;9.634;2023-04-15T06:53:02;5.10;;;3.70;;
1601;SDS011;794;48.592;9.634;2023-04-15T06:55:35;3.60;;;2.93;;
1601;SDS011;794;48.592;9.634;2023-04-15T06:58:02;3.40;;;3.10;;
1601;SDS011;794;48.592;9.634;2023-04-15T07:00:31;3.77;;;3.47;;
1601;SDS011;794;48.592;9.634;2023-04-15T07:03:03;13.50;;;3.97;;
1601;SDS011;794;48.592;9.634;2023-04-15T07:05:36;4.77;;;3.60;;
1601;SDS011;794;48.592;9.634;2023-04-15T07:08:06;4.33;;;3.20;;
1601;SDS011;794;48.592;9.634;2023-04-15T07:10:37;5.50;;;4.00;;
1601;SDS011;794;48.592;9.634;2023-04-15T07:13:06;5.30;;;3.23;;
1601;SDS011;794;48.592;9.634;2023-04-15T07:15:35;4.63;;;4.07;;
1601;SDS011;794;48.592;9.634;2023-04-15T07:18:02;3.40;;;3.10;;
1601;SDS011;794;48.592;9.634;2023-04-15T07:20:29;6.07;;;4.50;;
1601;SDS011;794;48.592;9.634;2023-04-15T07:22:59;5.60;;;4.70;;
1601;SDS011;794;48.592;9.634;2023-04-15T07:25:26;4.20;;;3.33;;
1601;SDS011;794;48.592;9.634;2023-04-15T07:27:56;4.10;;;2.93;;
1601;SDS011;794;48.592;9.634;2023-04-15T07:30:23;3.80;;;3.03;;
1601;SDS011;794;48.592;9.634;2023-04-15T07:32:57;4.90;;;2.63;;
1601;SDS011;794;48.592;9.634;2023-04-15T07:35:26;4.83;;;3.07;;
1601;SDS011;794;48.592;9.634;2023-04-15T07:37:55;4.43;;;2.50;;
1601;SDS011;794;48.592;9.634;2023-04-15T07:40:22;3.37;;;2.80;;
1601;SDS011;794;48.592;9.634;2023-04-15T07:42:52;5.20;;;2.67;;
1601;SDS011;794;48.592;9.634;2023-04-15T07:45:26;2.57;;;2.10;;
1601;SDS011;794;48.592;9.634;2023-04-15T07:47:53;5.33;;;2.87;;
1601;SDS011;794;48.592;9.634;2023-04-15T07:50:23;4.47;;;1.90;;
1601;SDS011;794;48.592;9.634;2023-04-15T07:52:52;5.13;;;2.13;;
1601;SDS011;794;48.592;9.634;2023-04-15T07:55:20;8.40;;;2.07;;
1601;SDS011;794;48.592;9.634;2023-04-15T07:57:49;3.33;;;1.80;;
1601;SDS011;794;48.592;9.634;2023-04-15T08:00:16;6.30;;;3.23;;
1601;SDS011;794;48.592;9.634;2023-04-15T08:02:45;9.23;;;1.67;;
1601;SDS011;794;48.592;9.634;2023-04-15T08:05:23;3.13;;;1.53;;
1601;SDS011;794;48.592;9.634;2023-04-15T10:48:50;4.53;;;3.03;;
1601;SDS011;794;48.592;9.634;2023-04-15T10:51:28;5.00;;;2.67;;
1601;SDS011;794;48.592;9.634;2023-04-15T10:53:56;2.83;;;2.23;;
1601;SDS011;794;48.592;9.634;2023-04-15T10:56:24;6.17;;;3.30;;
1601;SDS011;794;48.592;9.634;2023-04-15T10:58:53;3.93;;;2.63;;
1601;SDS011;794;48.592;9.634;2023-04-15T11:01:20;5.90;;;2.70;;
1601;SDS011;794;48.592;9.634;2023-04-15T11:03:49;3.23;;;2.17;;
1601;SDS011;794;48.592;9.634;2023-04-15T11:06:16;3.27;;;2.70;;
1601;SDS011;794;48.592;9.634;2023-04-15T11:08:54;4.70;;;2.13;;
1601;SDS011;794;48.592;9.634;2023-04-15T11:11:23;4.33;;;2.50;;
1601;SDS011;794;48.592;9.634;2023-04-15T11:14:30;3.53;;;2.47;;
1601;SDS011;794;48.592;9.634;2023-04-15T11:16:59;5.27;;;1.83;;
1601;SDS011;794;48.592;9.634;2023-04-15T11:19:26;3.50;;;2.83;;
1601;SDS011;794;48.592;9.634;2023-04-15T11:22:05;4.13;;;2.93;;
1601;SDS011;794;48.592;9.634;2023-04-15T11:24:32;3.60;;;3.30;;
1601;SDS011;794;48.592;9.634;2023-04-15T11:27:00;7.73;;;3.43;;
1601;SDS011;794;48.592;9.634;2023-04-15T11:29:28;3.47;;;2.70;;
1601;SDS011;794;48.592;9.634;2023-04-15T11:32:07;4.23;;;2.77;;
1601;SDS011;794;48.592;9.634;2023-04-15T11:34:34;5.00;;;2.83;;
1601;SDS011;794;48.592;9.634;2023-04-15T11:37:02;8.70;;;3.83;;
1601;SDS011;794;48.592;9.634;2023-04-15T11:39:30;4.70;;;3.73;;
1601;SDS011;794;48.592;9.634;2023-04-15T11:41:57;4.63;;;2.73;;
1601;SDS011;794;48.592;9.634;2023-04-15T11:44:24;5.20;;;3.20;;
1601;SDS011;794;48.592;9.634;2023-04-15T11:46:53;4.43;;;3.00;;
1601;SDS011;794;48.592;9.634;2023-04-15T11:49:27;4.97;;;3.10;;
1601;SDS011;794;48.592;9.634;2023-04-15T11:51:54;3.60;;;3.30;;
1601;SDS011;794;48.592;9.634;2023-04-15T11:54:21;5.80;;;3.60;;
1601;SDS011;794;48.592;9.634;2023-04-15T11:56:49;4.37;;;3.47;;
1601;SDS011;794;48.592;9.634;2023-04-15T11:59:16;3.10;;;2.80;;
1601;SDS011;794;48.592;9.634;2023-04-15T12:01:43;5.83;;;3.43;;
1601;SDS011;794;48.592;9.634;2023-04-15T12:04:13;4.23;;;2.87;;
1601;SDS011;794;48.592;9.634;2023-04-15T12:06:43;5.90;;;3.83;;
1601;SDS011;794;48.592;9.634;2023-04-15T12:09:11;5.70;;;3.87;;
1601;SDS011;794;48.592;9.634;2023-04-15T12:11:39;6.97;;;3.90;;
1601;SDS011;794;48.592;9.634;2023-04-15T12:14:12;4.37;;;3.57;;
1601;SDS011;794;48.592;9.634;2023-04-15T12:16:45;6.70;;;3.90;;
1601;SDS011;794;48.592;9.634;2023-04-15T12:19:16;9.80;;;3.97;;
1601;SDS011;794;48.592;9.634;2023-04-15T12:21:48;6.37;;;3.63;;
1601;SDS011;794;48.592;9.634;2023-04-15T12:24:18;5.37;;;3.87;;
1601;SDS011;794;48.592;9.634;2023-04-15T12:26:47;8.23;;;4.10;;
1601;SDS011;794;48.592;9.634;2023-04-15T12:29:15;7.60;;;4.40;;
1601;SDS011;794;48.592;9.634;2023-04-15T12:31:46;3.83;;;3.43;;
1601;SDS011;794;48.592;9.634;2023-04-15T12:34:16;6.70;;;3.67;;
1601;SDS011;794;48.592;9.634;2023-04-15T12:36:44;6.00;;;3.50;;
1601;SDS011;794;48.592;9.634;2023-04-15T12:39:10;5.93;;;3.93;;
1601;SDS011;794;48.592;9.634;2023-04-15T12:41:38;5.57;;;4.37;;
1601;SDS011;794;48.592;9.634;2023-04-15T12:44:05;6.77;;;4.10;;
1601;SDS011;794;48.592;9.634;2023-04-15T12:46:32;4.13;;;3.30;;
1601;SDS011;794;48.592;9.634;2023-04-15T12:48:59;4.47;;;3.93;;
1601;SDS011;794;48.592;9.634;2023-04-15T12:51:27;4.73;;;3.30;;
1601;SDS011;794;48.592;9.634;2023-04-15T12:53:55;4.40;;;3.70;;
1601;SDS011;794;48.592;9.634;2023-04-15T12:56:22;5.30;;;4.67;;
1601;SDS011;794;48.592;9.634;2023-04-15T12:58:49;6.27;;;4.43;;
1601;SDS011;794;48.592;9.634;2023-04-15T13:01:16;6.27;;;4.40;;
1601;SDS011;794;48.592;9.634;2023-04-15T13:03:44;7.00;;;3.60;;
1601;SDS011;794;48.592;9.634;2023-04-15T13:06:10;6.63;;;4.33;;
1601;SDS011;794;48.592;9.634;2023-04-15T13:08:39;4.83;;;3.63;;
1601;SDS011;794;48.592;9.634;2023-04-15T13:11:06;6.83;;;4.33;;
1601;SDS011;794;48.592;9.634;2023-04-15T13:13:33;5.03;;;4.00;;
1601;SDS011;794;48.592;9.634;2023-04-15T13:16:00;5.63;;;4.97;;
1601;SDS011;794;48.592;9.634;2023-04-15T13:18:26;7.20;;;3.57;;
1601;SDS011;794;48.592;9.634;2023-04-15T13:20:55;4.50;;;4.10;;
1601;SDS011;794;48.592;9.634;2023-04-15T13:23:21;5.43;;;4.10;;
1601;SDS011;794;48.592;9.634;2023-04-15T13:25:50;5.53;;;4.00;;
1601;SDS011;794;48.592;9.634;2023-04-15T13:28:17;5.33;;;4.10;;
1601;SDS011;794;48.592;9.634;2023-04-15T13:30:44;4.60;;;4.20;;
1601;SDS011;794;48.592;9.634;2023-04-15T13:33:12;4.80;;;4.10;;
1601;SDS011;794;48.592;9.634;2023-04-15T13:35:39;8.90;;;4.10;;
1601;SDS011;794;48.592;9.634;2023-04-15T13:38:06;4.50;;;3.70;;
1601;SDS011;794;48.592;9.634;2023-04-15T13:40:33;5.47;;;4.00;;
1601;SDS011;794;48.592;9.634;2023-04-15T13:43:01;5.07;;;3.83;;
1601;SDS011;794;48.592;9.634;2023-04-15T13:45:28;7.40;;;4.00;;
1601;SDS011;794;48.592;9.634;2023-04-15T13:47:55;4.43;;;3.90;;
1601;SDS011;794;48.592;9.634;2023-04-15T13:50:22;4.83;;;3.13;;
1601;SDS011;794;48.592;9.634;2023-04-15T13:52:49;4.77;;;4.10;;
1601;SDS011;794;48.592;9.634;2023-04-15T13:55:16;5.60;;;3.63;;
1601;SDS011;794;48.592;9.634;2023-04-15T13:57:43;4.53;;;3.73;;
1601;SDS011;794;48.592;9.634;2023-04-15T14:00:12;5.23;;;3.00;;
1601;SDS011;794;48.592;9.634;2023-04-15T14:02:39;3.10;;;2.90;;
1601;SDS011;794;48.592;9.634;2023-04-15T14:05:06;3.90;;;2.53;;
1601;SDS011;794;48.592;9.634;2023-04-15T14:07:34;6.83;;;3.10;;
1601;SDS011;794;48.592;9.634;2023-04-15T14:10:01;3.57;;;2.73;;
1601;SDS011;794;48.592;9.634;2023-04-15T14:12:28;3.00;;;2.57;;
1601;SDS011;794;48.592;9.634;2023-04-15T14:14:55;4.37;;;3.40;;
1601;SDS011;794;48.592;9.634;2023-04-15T14:20:18;5.60;;;2.70;;
1601;SDS011;794;48.592;9.634;2023-04-15T14:22:45;4.50;;;2.17;;
1601;SDS011;794;48.592;9.634;2023-04-15T14:25:11;2.70;;;1.93;;
1601;SDS011;794;48.592;9.634;2023-04-15T14:27:38;2.07;;;1.60;;
1601;SDS011;794;48.592;9.634;2023-04-15T14:30:06;2.17;;;1.73;;
1601;SDS011;794;48.592;9.634;2023-04-15T14:32:33;5.73;;;2.70;;
1601;SDS011;794;48.592;9.634;2023-04-15T14:35:01;2.70;;;1.53;;
1601;SDS011;794;48.592;9.634;2023-04-15T14:37:29;2.23;;;1.57;;
1601;SDS011;794;48.592;9.634;2023-04-15T14:39:56;2.87;;;1.37;;
1601;SDS011;794;48.592;9.634;2023-04-15T14:42:24;2.00;;;1.90;;
1601;SDS011;794;48.592;9.634;2023-04-15T14:44:51;2.40;;;2.20;;
1601;SDS011;794;48.592;9.634;2023-04-15T14:47:17;1.33;;;1.23;;
1601;SDS011;794;48.592;9.634;2023-04-15T14:49:44;1.40;;;1.30;;
1601;SDS011;794;48.592;9.634;2023-04-15T14:52:12;2.40;;;1.30;;
1601;SDS011;794;48.592;9.634;2023-04-15T14:54:39;2.43;;;1.23;;
1601;SDS011;794;48.592;9.634;2023-04-15T14:57:06;3.10;;;1.33;;
1601;SDS011;794;48.592;9.634;2023-04-15T14:59:33;1.43;;;0.80;;
1601;SDS011;794;48.592;9.634;2023-04-15T15:02:00;1.50;;;1.40;;
1601;SDS011;794;48.592;9.634;2023-04-15T15:04:27;1.93;;;1.57;;
1601;SDS011;794;48.592;9.634;2023-04-15T15:06:56;1.67;;;1.13;;
1601;SDS011;794;48.592;9.634;2023-04-15T15:09:25;2.90;;;2.50;;
1601;SDS011;794;48.592;9.634;2023-04-15T15:11:52;4.57;;;3.23;;
1601;SDS011;794;48.592;9.634;2023-04-15T15:14:18;2.10;;;1.53;;
1601;SDS011;794;48.592;9.634;2023-04-15T15:16:45;2.10;;;1.43;;
1601;SDS011;794;48.592;9.634;2023-04-15T15:19:12;1.20;;;1.10;;
1601;SDS011;794;48.592;9.634;2023-04-15T15:21:39;1.40;;;1.30;;
1601;SDS011;794;48.592;9.634;2023-04-15T15:24:06;5.10;;;1.60;;
1601;SDS011;794;48.592;9.634;2023-04-15T15:26:35;3.00;;;1.10;;
1601;SDS011;794;48.592;9.634;2023-04-15T15:29:01;0.93;;;0.93;;
1601;SDS011;794;48.592;9.634;2023-04-15T15:31:29;1.30;;;0.90;;
1601;SDS011;794;48.592;9.634;2023-04-15T15:33:55;1.70;;;1.40;;
1601;SDS011;794;48.592;9.634;2023-04-15T15:36:22;2.37;;;1.40;;
1601;SDS011;794;48.592;9.634;2023-04-15T15:38:51;1.37;;;1.27;;
1601;SDS011;794;48.592;9.634;2023-04-15T15:41:18;2.17;;;1.40;;
1601;SDS011;794;48.592;9.634;2023-04-15T15:43:46;1.10;;;0.93;;
1601;SDS011;794;48.592;9.634;2023-04-15T15:46:13;1.77;;;1.30;;
1601;SDS011;794;48.592;9.634;2023-04-15T15:48:40;1.60;;;1.50;;
1601;SDS011;794;48.592;9.634;2023-04-15T15:51:07;1.70;;;1.60;;
1601;SDS011;794;48.592;9.634;2023-04-15T15:53:34;4.27;;;1.50;;
1601;SDS011;794;48.592;9.634;2023-04-15T15:56:01;2.00;;;1.53;;
1601;SDS011;794;48.592;9.634;2023-04-15T15:58:28;2.10;;;1.37;;
1601;SDS011;794;48.592;9.634;2023-04-15T16:00:56;4.33;;;1.90;;
1601;SDS011;794;48.592;9.634;2023-04-15T16:03:24;4.07;;;2.03;;
1601;SDS011;794;48.592;9.634;2023-04-15T16:05:51;1.90;;;1.30;;
1601;SDS011;794;48.592;9.634;2023-04-15T16:08:18;4.10;;;1.87;;
1601;SDS011;794;48.592;9.634;2023-04-15T16:10:45;1.87;;;1.73;;
1601;SDS011;794;48.592;9.634;2023-04-15T16:13:12;3.27;;;1.83;;
1601;SDS011;794;48.592;9.634;2023-04-15T16:15:38;1.97;;;1.83;;
1601;SDS011;794;48.592;9.634;2023-04-15T16:18:07;3.43;;;1.80;;
1601;SDS011;794;48.592;9.634;2023-04-15T16:20:33;2.87;;;1.60;;
1601;SDS011;794;48.592;9.634;2023-04-15T16:23:00;2.97;;;2.60;;
1601;SDS011;794;48.592;9.634;2023-04-15T16:25:35;2.43;;;2.10;;
1601;SDS011;794;48.592;9.634;2023-04-15T16:28:02;3.27;;;2.97;;
1601;SDS011;794;48.592;9.634;2023-04-15T16:30:29;9.20;;;2.63;;
1601;SDS011;794;48.592;9.634;2023-04-15T16:32:56;2.23;;;2.03;;
1601;SDS011;794;48.592;9.634;2023-04-15T16:35:24;2.93;;;2.30;;
1601;SDS011;794;48.592;9.634;2023-04-15T16:37:51;4.60;;;3.10;;
1601;SDS011;794;48.592;9.634;2023-04-15T16:40:18;3.03;;;2.73;;
1601;SDS011;794;48.592;9.634;2023-04-15T16:42:45;2.53;;;2.33;;
1601;SDS011;794;48.592;9.634;2023-04-15T16:45:12;6.47;;;2.87;;
1601;SDS011;794;48.592;9.634;2023-04-15T16:47:39;2.53;;;2.40;;
1601;SDS011;794;48.592;9.634;2023-04-15T16:50:06;2.60;;;2.40;;
1601;SDS011;794;48.592;9.634;2023-04-15T16:52:35;3.53;;;3.07;;
1601;SDS011;794;48.592;9.634;2023-04-15T16:55:02;2.87;;;2.63;;
1601;SDS011;794;48.592;9.634;2023-04-15T16:57:30;3.17;;;2.97;;
1601;SDS011;794;48.592;9.634;2023-04-15T16:59:56;3.60;;;2.70;;
1601;SDS011;794;48.592;9.634;2023-04-15T17:02:23;4.47;;;3.03;;
1601;SDS011;794;48.592;9.634;2023-04-15T17:04:50;3.43;;;3.13;;
1601;SDS011;794;48.592;9.634;2023-04-15T17:07:17;3.60;;;2.80;;
1601;SDS011;794;48.592;9.634;2023-04-15T17:09:45;3.50;;;3.20;;
1601;SDS011;794;48.592;9.634;2023-04-15T17:12:12;2.93;;;2.63;;
1601;SDS011;794;48.592;9.634;2023-04-15T17:14:39;5.67;;;2.87;;
1601;SDS011;794;48.592;9.634;2023-04-15T17:17:06;3.10;;;2.90;;
1601;SDS011;794;48.592;9.634;2023-04-15T17:19:33;3.30;;;3.00;;
1601;SDS011;794;48.592;9.634;2023-04-15T17:22:00;4.27;;;2.77;;
1601;SDS011;794;48.592;9.634;2023-04-15T17:24:27;3.63;;;3.27;;
1601;SDS011;794;48.592;9.634;2023-04-15T17:26:55;3.77;;;3.47;;
1601;SDS011;794;48.592;9.634;2023-04-15T17:29:22;3.90;;;3.57;;
1601;SDS011;794;48.592;9.634;2023-04-15T17:31:49;4.10;;;3.33;;
1601;SDS011;794;48.592;9.634;2023-04-15T17:34:17;5.93;;;5.43;;
1601;SDS011;794;48.592;9.634;2023-04-15T17:36:43;6.20;;;3.60;;
1601;SDS011;794;48.592;9.634;2023-04-15T17:39:28;3.87;;;3.57;;
1601;SDS011;794;48.592;9.634;2023-04-15T17:41:57;4.60;;;4.20;;
1601;SDS011;794;48.592;9.634;2023-04-15T17:44:24;3.27;;;2.70;;
1601;SDS011;794;48.592;9.634;2023-04-15T17:46:51;3.10;;;2.80;;
1601;SDS011;794;48.592;9.634;2023-04-15T17:49:18;4.20;;;2.63;;
1601;SDS011;794;48.592;9.634;2023-04-15T17:51:45;2.30;;;2.10;;
1601;SDS011;794;48.592;9.634;2023-04-15T17:54:12;3.00;;;2.57;;
1601;SDS011;794;48.592;9.634;2023-04-15T17:56:39;2.60;;;2.40;;
1601;SDS011;794;48.592;9.634;2023-04-15T17:59:07;3.30;;;3.00;;
1601;SDS011;794;48.592;9.634;2023-04-15T18:01:34;2.77;;;2.57;;
1601;SDS011;794;48.592;9.634;2023-04-15T18:04:01;12.20;;;11.00;;
1601;SDS011;794;48.592;9.634;2023-04-15T18:06:28;2.53;;;2.33;;
1601;SDS011;794;48.592;9.634;2023-04-15T18:08:55;1.90;;;1.80;;
1601;SDS011;794;48.592;9.634;2023-04-15T18:11:22;2.37;;;2.13;;
1601;SDS011;794;48.592;9.634;2023-04-15T18:13:49;1.77;;;1.67;;
1601;SDS011;794;48.592;9.634;2023-04-15T18:16:17;3.07;;;2.77;;
1601;SDS011;794;48.592;9.634;2023-04-15T18:18:44;2.77;;;2.57;;
1601;SDS011;794;48.592;9.634;2023-04-15T18:21:11;3.60;;;2.60;;
1601;SDS011;794;48.592;9.634;2023-04-15T18:23:38;2.80;;;1.60;;